createdAt,value
2022-10-05T00:01:45.637Z,6.00
2022-10-05T00:04:21.659Z,6.20
2022-10-05T00:06:56.015Z,6.20
2022-10-05T00:09:23.538Z,6.20
2022-10-05T00:11:51.193Z,6.20
2022-10-05T00:14:21.722Z,6.20
2022-10-05T00:16:48.681Z,6.20
2022-10-05T00:19:23.649Z,6.30
2022-10-05T00:21:50.380Z,6.30
2022-10-05T00:24:20.489Z,6.30
2022-10-05T00:26:47.473Z,6.40
2022-10-05T00:29:22.350Z,6.30
2022-10-05T00:31:50.256Z,6.20
2022-10-05T00:34:18.054Z,6.20
2022-10-05T00:36:46.081Z,6.20
2022-10-05T00:39:13.016Z,6.20
2022-10-05T00:41:47.444Z,6.20
2022-10-05T00:44:40.259Z,6.30
2022-10-05T00:47:36.050Z,6.20
2022-10-05T00:50:12.169Z,6.10
2022-10-05T00:53:03.713Z,6.10
2022-10-05T00:55:54.934Z,6.00
2022-10-05T00:58:54.916Z,6.10
2022-10-05T01:01:36.716Z,6.10
2022-10-05T01:04:54.397Z,6.20
2022-10-05T01:07:42.412Z,6.20
2022-10-05T01:10:21.661Z,6.10
2022-10-05T01:13:27.304Z,6.20
2022-10-05T01:16:31.915Z,6.10
2022-10-05T01:19:01.653Z,6.00
2022-10-05T01:21:36.446Z,5.90
2022-10-05T01:24:29.148Z,5.80
2022-10-05T01:27:33.649Z,5.80
2022-10-05T01:30:12.907Z,5.60
2022-10-05T01:33:01.352Z,5.50
2022-10-05T01:35:50.720Z,5.50
2022-10-05T01:38:42.492Z,5.40
2022-10-05T01:41:16.708Z,5.50
2022-10-05T01:43:46.402Z,5.50
2022-10-05T01:46:39.499Z,5.30
2022-10-05T01:49:30.420Z,5.40
2022-10-05T01:52:31.099Z,5.40
2022-10-05T01:55:06.115Z,5.50
2022-10-05T01:57:49.790Z,5.50
2022-10-05T02:00:20.343Z,5.50
2022-10-05T02:02:53.059Z,5.50
2022-10-05T02:05:33.215Z,5.40
2022-10-05T02:08:14.465Z,5.40
2022-10-05T02:11:03.577Z,5.30
2022-10-05T02:13:36.664Z,5.30
2022-10-05T02:16:10.647Z,5.30
2022-10-05T02:18:46.972Z,5.40
2022-10-05T02:21:13.776Z,5.40
2022-10-05T02:23:42.583Z,5.50
2022-10-05T02:26:12.429Z,5.40
2022-10-05T02:28:49.025Z,5.20
2022-10-05T02:31:19.525Z,5.20
2022-10-05T02:33:46.152Z,5.20
2022-10-05T02:36:19.845Z,5.30
2022-10-05T02:38:59.324Z,5.20
2022-10-05T02:41:38.460Z,5.30
2022-10-05T02:44:29.853Z,5.30
2022-10-05T02:47:15.418Z,5.50
2022-10-05T02:50:13.738Z,5.60
2022-10-05T02:53:03.141Z,5.60
2022-10-05T02:55:42.044Z,5.70
2022-10-05T02:58:21.239Z,5.70
2022-10-05T03:01:14.350Z,5.70
2022-10-05T03:03:56.376Z,5.70
2022-10-05T03:06:29.016Z,5.80
2022-10-05T03:09:04.048Z,5.80
2022-10-05T03:11:48.607Z,5.70
2022-10-05T03:14:40.670Z,5.80
2022-10-05T03:17:15.559Z,5.70
2022-10-05T03:19:45.311Z,5.70
2022-10-05T03:22:21.073Z,5.70
2022-10-05T03:25:14.849Z,5.70
2022-10-05T03:27:51.824Z,5.60
2022-10-05T03:30:21.782Z,5.60
2022-10-05T03:32:58.579Z,5.60
2022-10-05T03:35:31.219Z,5.70
2022-10-05T03:38:11.002Z,5.70
2022-10-05T03:40:49.617Z,5.60
2022-10-05T03:43:46.579Z,5.60
2022-10-05T03:46:36.863Z,5.60
2022-10-05T03:49:22.684Z,5.60
2022-10-05T03:51:59.890Z,5.50
2022-10-05T03:54:33.406Z,5.60
2022-10-05T03:57:21.809Z,5.60
2022-10-05T04:00:13.896Z,5.70
2022-10-05T04:02:47.886Z,5.80
2022-10-05T04:05:19.029Z,5.80
2022-10-05T04:07:47.769Z,5.80
2022-10-05T04:10:37.584Z,5.70
2022-10-05T04:13:22.159Z,5.70
2022-10-05T04:16:01.629Z,5.80
2022-10-05T04:18:42.229Z,5.70
2022-10-05T04:21:22.798Z,5.80
2022-10-05T04:24:09.612Z,5.80
2022-10-05T04:26:50.655Z,5.80
2022-10-05T04:29:39.070Z,5.80
2022-10-05T04:32:06.095Z,5.80
2022-10-05T04:35:14.519Z,5.80
2022-10-05T04:38:02.716Z,5.70
2022-10-05T04:40:48.328Z,5.70
2022-10-05T04:43:29.326Z,5.70
2022-10-05T04:46:16.824Z,5.70
2022-10-05T04:49:04.732Z,5.80
2022-10-05T04:51:52.071Z,5.80
2022-10-05T04:54:56.334Z,5.70
2022-10-05T04:57:49.076Z,5.80
2022-10-05T05:00:24.615Z,5.70
2022-10-05T05:03:33.932Z,5.80
2022-10-05T05:06:28.431Z,5.80
2022-10-05T05:09:22.550Z,5.80
2022-10-05T05:12:10.865Z,5.80
2022-10-05T05:15:18.616Z,5.80
2022-10-05T05:18:04.896Z,5.80
2022-10-05T05:20:41.961Z,5.90
2022-10-05T05:23:47.243Z,6.00
2022-10-05T05:26:38.759Z,6.00
2022-10-05T05:29:30.257Z,6.10
2022-10-05T05:32:25.175Z,6.00
2022-10-05T05:35:16.640Z,6.00
2022-10-05T05:37:58.317Z,6.00
2022-10-05T05:40:36.191Z,6.00
2022-10-05T05:43:10.502Z,6.10
2022-10-05T05:45:50.008Z,6.10
2022-10-05T05:48:24.272Z,6.10
2022-10-05T05:51:08.454Z,6.10
2022-10-05T05:53:43.899Z,6.10
2022-10-05T05:56:11.854Z,6.10
2022-10-05T05:58:52.019Z,6.10
2022-10-05T06:01:32.254Z,6.20
2022-10-05T06:04:14.746Z,6.20
2022-10-05T06:06:47.877Z,6.20
2022-10-05T06:09:33.617Z,6.40
2022-10-05T06:12:12.595Z,6.50
2022-10-05T06:14:42.612Z,6.60
2022-10-05T06:17:35.007Z,6.70
2022-10-05T06:20:08.000Z,6.80
2022-10-05T06:22:38.708Z,6.90
2022-10-05T06:25:17.308Z,7.00
2022-10-05T06:28:12.433Z,7.00
2022-10-05T06:31:04.543Z,7.10
2022-10-05T06:33:52.242Z,7.20
2022-10-05T06:36:33.069Z,7.30
2022-10-05T06:39:14.720Z,7.40
2022-10-05T06:41:47.437Z,7.50
2022-10-05T06:44:54.012Z,7.60
2022-10-05T06:47:37.974Z,7.70
2022-10-05T06:50:29.482Z,7.80
2022-10-05T06:53:14.738Z,8.00
2022-10-05T06:56:07.326Z,8.10
2022-10-05T06:59:17.447Z,8.20
2022-10-05T07:02:09.362Z,8.40
2022-10-05T07:04:53.879Z,8.50
2022-10-05T07:07:54.992Z,8.60
2022-10-05T07:10:32.581Z,8.70
2022-10-05T07:13:25.308Z,8.80
2022-10-05T07:16:03.265Z,8.90
2022-10-05T07:19:02.626Z,8.90
2022-10-05T07:21:43.356Z,9.00
2022-10-05T07:24:22.615Z,9.10
2022-10-05T07:27:17.840Z,9.10
2022-10-05T07:29:56.746Z,9.10
2022-10-05T07:32:34.579Z,9.20
2022-10-05T07:35:44.874Z,9.30
2022-10-05T07:38:35.192Z,9.30
2022-10-05T07:41:06.433Z,9.40
2022-10-05T07:44:01.424Z,9.50
2022-10-05T07:46:37.692Z,9.50
2022-10-05T07:49:17.624Z,9.60
2022-10-05T07:52:11.462Z,9.70
2022-10-05T07:55:03.201Z,9.80
2022-10-05T07:58:14.773Z,9.90
2022-10-05T08:00:59.434Z,10.10
2022-10-05T08:03:36.083Z,10.30
2022-10-05T08:06:05.622Z,10.40
2022-10-05T08:08:51.065Z,10.50
2022-10-05T08:11:27.112Z,10.50
2022-10-05T08:14:00.676Z,10.60
2022-10-05T08:16:32.788Z,10.70
2022-10-05T08:19:40.453Z,10.80
2022-10-05T08:22:12.668Z,10.90
2022-10-05T08:24:46.173Z,11.00
2022-10-05T08:27:23.670Z,11.00
2022-10-05T08:30:01.544Z,11.10
2022-10-05T08:32:51.112Z,11.20
2022-10-05T08:35:25.173Z,11.30
2022-10-05T08:37:52.686Z,11.30
2022-10-05T08:40:21.375Z,11.40
2022-10-05T08:43:21.538Z,11.40
2022-10-05T08:46:19.013Z,11.50
2022-10-05T08:48:51.572Z,11.50
2022-10-05T08:51:53.374Z,11.60
2022-10-05T08:54:34.787Z,11.60
2022-10-05T08:57:32.846Z,11.70
2022-10-05T09:00:05.456Z,11.70
2022-10-05T09:03:00.292Z,11.80
2022-10-05T09:05:36.073Z,11.80
2022-10-05T09:08:24.569Z,11.90
2022-10-05T09:11:00.077Z,11.90
2022-10-05T09:13:36.809Z,11.90
2022-10-05T09:16:06.229Z,12.00
2022-10-05T09:18:57.742Z,12.00
2022-10-05T20:45:25.125Z,10.50
2022-10-05T20:48:14.223Z,10.50
2022-10-05T20:51:03.430Z,10.50
2022-10-05T20:53:29.001Z,10.50
2022-10-05T20:56:10.370Z,10.50
2022-10-05T20:58:38.672Z,10.40
2022-10-05T21:01:39.806Z,10.40
2022-10-05T21:04:16.177Z,10.50
2022-10-05T21:06:43.860Z,10.50
2022-10-05T21:09:14.725Z,10.50
2022-10-05T21:11:42.226Z,10.40
2022-10-05T21:14:09.835Z,10.40
2022-10-05T21:16:38.055Z,10.40
2022-10-05T21:19:25.696Z,10.50
2022-10-05T21:21:52.362Z,10.40
2022-10-05T21:24:19.034Z,10.40
2022-10-05T21:26:45.767Z,10.40
2022-10-05T21:29:13.219Z,10.30
2022-10-05T21:31:40.479Z,10.30
2022-10-05T21:34:08.145Z,10.30
2022-10-05T21:36:35.488Z,10.30
2022-10-05T21:39:02.280Z,10.30
2022-10-05T21:41:28.977Z,10.30
2022-10-05T21:43:55.762Z,10.40
2022-10-05T21:46:26.693Z,10.30
2022-10-05T21:48:55.171Z,10.30
2022-10-05T21:51:25.327Z,10.40
2022-10-05T21:53:58.051Z,10.40
2022-10-05T21:56:31.095Z,10.40
2022-10-05T21:58:58.460Z,10.50
2022-10-05T22:01:25.249Z,10.50
2022-10-05T22:03:51.948Z,10.60
2022-10-05T22:06:18.638Z,10.60
2022-10-05T22:08:46.346Z,10.60
2022-10-05T22:11:18.000Z,10.50
2022-10-05T22:13:49.943Z,10.50
2022-10-05T22:16:19.798Z,10.50
2022-10-05T22:18:47.322Z,10.40
2022-10-05T22:21:15.167Z,10.40
2022-10-05T22:23:45.284Z,10.30
2022-10-05T22:26:16.665Z,10.20
2022-10-05T22:28:44.109Z,10.20
2022-10-05T22:31:13.155Z,10.20
2022-10-05T22:33:41.029Z,10.10
2022-10-05T22:36:09.162Z,10.10
2022-10-05T22:38:35.983Z,10.00
2022-10-05T22:41:02.862Z,10.00
2022-10-05T22:43:29.849Z,9.90
2022-10-05T22:45:56.634Z,9.90
2022-10-05T22:48:23.436Z,9.70
2022-10-05T22:50:50.255Z,9.70
2022-10-05T22:53:17.003Z,9.60
2022-10-05T22:55:43.678Z,9.60
2022-10-05T22:58:10.535Z,9.60
2022-10-05T23:00:56.821Z,9.60
2022-10-05T23:03:24.251Z,9.50
2022-10-05T23:05:57.561Z,9.40
2022-10-05T23:08:24.733Z,9.40
2022-10-05T23:10:52.592Z,9.40
2022-10-05T23:13:19.280Z,9.30
2022-10-05T23:15:46.079Z,9.30
2022-10-05T23:18:12.719Z,9.20
2022-10-05T23:20:40.186Z,9.10
2022-10-05T23:23:06.994Z,9.10
2022-10-05T23:25:33.760Z,9.10
2022-10-05T23:28:02.538Z,9.10
2022-10-05T23:30:29.671Z,9.10
2022-10-05T23:32:56.380Z,9.10
2022-10-05T23:35:23.293Z,9.10
2022-10-05T23:37:51.614Z,9.00
2022-10-05T23:40:18.267Z,9.00
2022-10-05T23:42:45.016Z,9.00
2022-10-05T23:45:12.586Z,9.00
2022-10-05T23:47:40.733Z,8.90
2022-10-05T23:50:10.303Z,8.90
2022-10-05T23:52:37.365Z,8.90
2022-10-05T23:55:05.482Z,8.90
2022-10-05T23:57:32.935Z,8.90
